SXB258 EDDH-LOWW
Flight info
| Callsign | SXB258 |
|---|---|
| Flight time | 1h 20m |
| Altitude | 35000 |
| Route | RAMAR6G RAMAR Z998 RATMO DCT HDO DCT EVIKU DCT BITSI DCT MIKOV MIKOV8W |
| Aircraft | B77L/H-SDE1E2E3FGHIJ2J3J4J5M1RWXY/LB1D1 |
Departure
| Time | 2026-05-06 18:21 |
|---|---|
| Airport | Hamburg Helmut Schmidt Airport (EDDH) |
Arrival
| Time | 2026-05-06 19:41 |
|---|---|
| Airport | Vienna International Airport (LOWW) |
| Time | Latitude | Longitude | Altitude | Speed | Heading |
|---|---|---|---|---|---|
| 2026-05-06 17:57 | 53.62764 | 9.99395 | 51 ft | 0 kts | 242° |
| 2026-05-06 18:10 | 53.62766 | 9.99402 | 51 ft | 3 kts | 243° |
| 2026-05-06 18:10 | 53.62778 | 9.99442 | 46 ft | 4 kts | 243° |
| 2026-05-06 18:11 | 53.62789 | 9.99475 | 44 ft | 4 kts | 218° |
| 2026-05-06 18:11 | 53.62810 | 9.99484 | 44 ft | 4 kts | 156° |
| 2026-05-06 18:11 | 53.62830 | 9.99467 | 45 ft | 1 kts | 153° |
| 2026-05-06 18:11 | 53.62834 | 9.99464 | 45 ft | 0 kts | 153° |
| 2026-05-06 18:15 | 53.62792 | 9.99503 | 44 ft | 10 kts | 153° |
| 2026-05-06 18:15 | 53.62729 | 9.99556 | 47 ft | 10 kts | 155° |
| 2026-05-06 18:16 | 53.62667 | 9.99606 | 46 ft | 9 kts | 152° |
| 2026-05-06 18:16 | 53.62638 | 9.99663 | 46 ft | 3 kts | 109° |
| 2026-05-06 18:16 | 53.62637 | 9.99675 | 46 ft | 0 kts | 102° |
| 2026-05-06 18:17 | 53.62636 | 9.99694 | 47 ft | 2 kts | 94° |
| 2026-05-06 18:17 | 53.62636 | 9.99706 | 49 ft | 0 kts | 88° |
| 2026-05-06 18:19 | 53.62639 | 9.99743 | 46 ft | 4 kts | 80° |
| 2026-05-06 18:19 | 53.62647 | 9.99798 | 47 ft | 5 kts | 72° |
| 2026-05-06 18:19 | 53.62661 | 9.99858 | 49 ft | 5 kts | 66° |
| 2026-05-06 18:19 | 53.62687 | 9.99893 | 50 ft | 5 kts | 4° |
| 2026-05-06 18:20 | 53.62699 | 9.99885 | 50 ft | 0 kts | 335° |
| 2026-05-06 18:20 | 53.62700 | 9.99885 | 50 ft | 0 kts | 335° |
| 2026-05-06 18:20 | 53.62730 | 9.99860 | 50 ft | 26 kts | 334° |
| 2026-05-06 18:21 | 53.63180 | 9.99472 | 45 ft | 118 kts | 333° |
| 2026-05-06 18:21 | 53.64156 | 9.98614 | 158 ft | 188 kts | 335° |
| 2026-05-06 18:21 | 53.65357 | 9.97581 | 842 ft | 204 kts | 336° |
| 2026-05-06 18:21 | 53.66649 | 9.96491 | 1665 ft | 211 kts | 339° |
| 2026-05-06 18:22 | 53.67978 | 9.95366 | 2372 ft | 217 kts | 339° |
| 2026-05-06 18:22 | 53.69384 | 9.94568 | 2916 ft | 216 kts | 2° |
| 2026-05-06 18:22 | 53.70945 | 9.94649 | 3125 ft | 236 kts | 6° |
| 2026-05-06 18:22 | 53.72617 | 9.94935 | 3558 ft | 245 kts | 22° |
| 2026-05-06 18:23 | 53.73981 | 9.96575 | 4238 ft | 246 kts | 55° |
| 2026-05-06 18:23 | 53.74794 | 9.99109 | 4872 ft | 250 kts | 64° |
| 2026-05-06 18:23 | 53.75565 | 10.01794 | 4987 ft | 256 kts | 64° |
| 2026-05-06 18:23 | 53.76341 | 10.04489 | 4992 ft | 254 kts | 64° |
| 2026-05-06 18:24 | 53.77109 | 10.07169 | 4994 ft | 253 kts | 64° |
| 2026-05-06 18:24 | 53.77877 | 10.09850 | 5160 ft | 254 kts | 64° |
| 2026-05-06 18:24 | 53.78652 | 10.12559 | 5890 ft | 259 kts | 64° |
| 2026-05-06 18:24 | 53.79448 | 10.15336 | 6660 ft | 262 kts | 63° |
| 2026-05-06 18:25 | 53.80251 | 10.18135 | 7384 ft | 270 kts | 63° |
| 2026-05-06 18:25 | 53.81077 | 10.21016 | 8160 ft | 270 kts | 63° |
| 2026-05-06 18:25 | 53.81900 | 10.23887 | 9016 ft | 272 kts | 63° |
| 2026-05-06 18:25 | 53.82735 | 10.26804 | 9633 ft | 279 kts | 63° |
| 2026-05-06 18:26 | 53.83582 | 10.29771 | 9898 ft | 284 kts | 63° |
| 2026-05-06 18:26 | 53.84424 | 10.32839 | 9937 ft | 286 kts | 69° |
| 2026-05-06 18:26 | 53.84689 | 10.36253 | 10150 ft | 308 kts | 94° |
| 2026-05-06 18:26 | 53.84052 | 10.39857 | 10332 ft | 334 kts | 118° |
| 2026-05-06 18:27 | 53.82590 | 10.43081 | 10492 ft | 357 kts | 133° |
| 2026-05-06 18:27 | 53.80821 | 10.46170 | 10954 ft | 372 kts | 134° |
| 2026-05-06 18:27 | 53.78978 | 10.49301 | 11792 ft | 375 kts | 135° |
| 2026-05-06 18:27 | 53.77141 | 10.52415 | 12946 ft | 375 kts | 137° |
| 2026-05-06 18:28 | 53.75283 | 10.55576 | 13729 ft | 384 kts | 136° |
| 2026-05-06 18:28 | 53.73387 | 10.58824 | 14424 ft | 391 kts | 136° |
| 2026-05-06 18:28 | 53.72119 | 10.61007 | 14975 ft | 394 kts | 136° |
| 2026-05-06 18:28 | 53.69569 | 10.65419 | 16054 ft | 400 kts | 136° |
| 2026-05-06 18:29 | 53.68253 | 10.67700 | 16573 ft | 403 kts | 136° |
| 2026-05-06 18:29 | 53.65637 | 10.72238 | 17578 ft | 411 kts | 137° |
| 2026-05-06 18:29 | 53.64290 | 10.74572 | 18070 ft | 414 kts | 137° |
| 2026-05-06 18:29 | 53.62268 | 10.78074 | 18743 ft | 419 kts | 137° |
| 2026-05-06 18:30 | 53.60224 | 10.81610 | 19436 ft | 423 kts | 136° |
| 2026-05-06 18:30 | 53.58167 | 10.85165 | 20131 ft | 426 kts | 136° |
| 2026-05-06 18:30 | 53.56082 | 10.88761 | 20817 ft | 430 kts | 136° |
| 2026-05-06 18:30 | 53.53990 | 10.92366 | 21471 ft | 434 kts | 136° |
| 2026-05-06 18:31 | 53.51872 | 10.96008 | 22145 ft | 437 kts | 136° |
| 2026-05-06 18:31 | 53.49736 | 10.99675 | 22803 ft | 442 kts | 136° |
| 2026-05-06 18:31 | 53.47562 | 11.03402 | 22868 ft | 450 kts | 137° |
| 2026-05-06 18:31 | 53.45373 | 11.07149 | 22876 ft | 448 kts | 137° |
| 2026-05-06 18:32 | 53.43193 | 11.10877 | 22869 ft | 445 kts | 137° |
| 2026-05-06 18:32 | 53.41026 | 11.14576 | 22860 ft | 444 kts | 137° |
| 2026-05-06 18:32 | 53.38860 | 11.18266 | 22867 ft | 445 kts | 137° |
| 2026-05-06 18:32 | 53.36682 | 11.21972 | 22869 ft | 445 kts | 137° |
| 2026-05-06 18:33 | 53.34505 | 11.25670 | 22874 ft | 446 kts | 137° |
| 2026-05-06 18:33 | 53.32328 | 11.29365 | 22875 ft | 446 kts | 137° |
| 2026-05-06 18:33 | 53.30147 | 11.33062 | 22868 ft | 447 kts | 137° |
| 2026-05-06 18:33 | 53.27962 | 11.36758 | 22856 ft | 447 kts | 138° |
| 2026-05-06 18:34 | 53.25761 | 11.40449 | 23044 ft | 449 kts | 139° |
| 2026-05-06 18:34 | 53.23469 | 11.44024 | 23665 ft | 452 kts | 141° |
| 2026-05-06 18:34 | 53.21131 | 11.47527 | 24285 ft | 453 kts | 141° |
| 2026-05-06 18:34 | 53.18753 | 11.50987 | 24893 ft | 454 kts | 143° |
| 2026-05-06 18:35 | 53.16304 | 11.54323 | 25394 ft | 457 kts | 145° |
| 2026-05-06 18:35 | 53.13798 | 11.57634 | 25890 ft | 461 kts | 145° |
| 2026-05-06 18:35 | 53.11275 | 11.60948 | 26409 ft | 464 kts | 146° |
| 2026-05-06 18:35 | 53.08734 | 11.64294 | 26952 ft | 467 kts | 145° |
| 2026-05-06 18:36 | 53.06189 | 11.67668 | 27486 ft | 470 kts | 145° |
| 2026-05-06 18:36 | 53.03631 | 11.71075 | 27972 ft | 473 kts | 145° |
| 2026-05-06 18:36 | 53.01060 | 11.74509 | 28442 ft | 476 kts | 145° |
| 2026-05-06 18:36 | 52.98485 | 11.77955 | 29088 ft | 474 kts | 146° |
| 2026-05-06 18:37 | 52.95923 | 11.81385 | 29709 ft | 473 kts | 146° |
| 2026-05-06 18:37 | 52.93355 | 11.84813 | 30191 ft | 473 kts | 146° |
| 2026-05-06 18:37 | 52.90780 | 11.88245 | 30607 ft | 474 kts | 146° |
| 2026-05-06 18:37 | 52.88206 | 11.91668 | 30989 ft | 475 kts | 146° |
| 2026-05-06 18:38 | 52.85623 | 11.95095 | 31406 ft | 476 kts | 146° |
| 2026-05-06 18:38 | 52.83069 | 11.98481 | 31829 ft | 476 kts | 146° |
| 2026-05-06 18:38 | 52.80480 | 12.01906 | 32238 ft | 476 kts | 146° |
| 2026-05-06 18:38 | 52.77892 | 12.05326 | 32651 ft | 477 kts | 146° |
| 2026-05-06 18:39 | 52.75295 | 12.08751 | 33044 ft | 477 kts | 146° |
| 2026-05-06 18:39 | 52.72672 | 12.12205 | 33435 ft | 477 kts | 146° |
| 2026-05-06 18:39 | 52.70065 | 12.15632 | 33780 ft | 478 kts | 146° |
| 2026-05-06 18:40 | 52.64848 | 12.22474 | 34397 ft | 479 kts | 146° |
| 2026-05-06 18:40 | 52.62237 | 12.25893 | 34750 ft | 478 kts | 146° |
| 2026-05-06 18:40 | 52.59669 | 12.29248 | 34822 ft | 481 kts | 146° |
| 2026-05-06 18:41 | 52.54423 | 12.36086 | 34817 ft | 480 kts | 146° |
| 2026-05-06 18:41 | 52.49219 | 12.42853 | 34820 ft | 475 kts | 146° |
| 2026-05-06 18:42 | 52.44042 | 12.49560 | 34818 ft | 474 kts | 146° |
| 2026-05-06 18:42 | 52.38868 | 12.56241 | 34817 ft | 473 kts | 146° |
| 2026-05-06 18:43 | 52.33659 | 12.62947 | 34812 ft | 474 kts | 146° |
| 2026-05-06 18:43 | 52.28510 | 12.69556 | 34814 ft | 474 kts | 147° |
| 2026-05-06 18:44 | 52.23318 | 12.76200 | 34800 ft | 474 kts | 147° |
| 2026-05-06 18:44 | 52.18126 | 12.82823 | 34801 ft | 474 kts | 147° |
| 2026-05-06 18:45 | 52.12924 | 12.89440 | 34778 ft | 474 kts | 147° |
| 2026-05-06 18:45 | 52.07738 | 12.96020 | 34787 ft | 472 kts | 147° |
| 2026-05-06 18:46 | 52.02566 | 13.02559 | 34782 ft | 470 kts | 147° |
| 2026-05-06 18:46 | 51.97422 | 13.09043 | 34785 ft | 467 kts | 147° |
| 2026-05-06 18:47 | 51.92279 | 13.15505 | 34794 ft | 466 kts | 147° |
| 2026-05-06 18:47 | 51.87156 | 13.21923 | 34796 ft | 465 kts | 147° |
| 2026-05-06 18:48 | 51.82041 | 13.28313 | 34791 ft | 465 kts | 148° |
| 2026-05-06 18:48 | 51.76934 | 13.34674 | 34804 ft | 465 kts | 148° |
| 2026-05-06 18:49 | 51.71795 | 13.41054 | 34797 ft | 467 kts | 148° |
| 2026-05-06 18:49 | 51.66634 | 13.47443 | 34803 ft | 468 kts | 148° |
| 2026-05-06 18:50 | 51.61449 | 13.53845 | 34800 ft | 470 kts | 148° |
| 2026-05-06 18:50 | 51.56248 | 13.60249 | 34791 ft | 472 kts | 148° |
| 2026-05-06 18:51 | 51.51036 | 13.66647 | 34787 ft | 471 kts | 148° |
| 2026-05-06 18:51 | 51.45830 | 13.73020 | 34777 ft | 471 kts | 148° |
| 2026-05-06 18:52 | 51.40621 | 13.79377 | 34788 ft | 469 kts | 148° |
| 2026-05-06 18:52 | 51.35432 | 13.85690 | 34789 ft | 469 kts | 148° |
| 2026-05-06 18:53 | 51.30238 | 13.91991 | 34777 ft | 468 kts | 148° |
| 2026-05-06 18:53 | 51.25048 | 13.98269 | 34778 ft | 467 kts | 148° |
| 2026-05-06 18:54 | 51.19863 | 14.04523 | 34767 ft | 467 kts | 148° |
| 2026-05-06 18:54 | 51.14680 | 14.10758 | 34787 ft | 467 kts | 148° |
| 2026-05-06 18:55 | 51.09517 | 14.16951 | 34782 ft | 467 kts | 148° |
| 2026-05-06 18:55 | 51.04319 | 14.23174 | 34784 ft | 467 kts | 148° |
| 2026-05-06 18:56 | 50.99118 | 14.29380 | 34746 ft | 468 kts | 149° |
| 2026-05-06 18:56 | 50.93769 | 14.35134 | 34771 ft | 461 kts | 158° |
| 2026-05-06 18:57 | 50.87871 | 14.38838 | 34763 ft | 452 kts | 171° |
| 2026-05-06 18:57 | 50.81754 | 14.41056 | 34770 ft | 452 kts | 172° |
| 2026-05-06 18:58 | 50.75601 | 14.43258 | 34777 ft | 453 kts | 172° |
| 2026-05-06 18:58 | 50.69448 | 14.45515 | 34775 ft | 455 kts | 172° |
| 2026-05-06 18:59 | 50.63275 | 14.47794 | 34769 ft | 455 kts | 172° |
| 2026-05-06 18:59 | 50.57143 | 14.50054 | 34765 ft | 455 kts | 172° |
| 2026-05-06 19:00 | 50.50985 | 14.52322 | 34766 ft | 454 kts | 170° |
| 2026-05-06 19:00 | 50.45157 | 14.56384 | 34769 ft | 465 kts | 153° |
| 2026-05-06 19:01 | 50.40101 | 14.62872 | 34778 ft | 473 kts | 141° |
| 2026-05-06 19:01 | 50.35395 | 14.70131 | 34779 ft | 474 kts | 141° |
| 2026-05-06 19:02 | 50.30701 | 14.77342 | 34750 ft | 473 kts | 141° |
| 2026-05-06 19:02 | 50.25970 | 14.84508 | 34749 ft | 473 kts | 142° |
| 2026-05-06 19:03 | 50.21231 | 14.91624 | 34755 ft | 473 kts | 142° |
| 2026-05-06 19:03 | 50.16500 | 14.98697 | 34759 ft | 474 kts | 142° |
| 2026-05-06 19:04 | 50.11727 | 15.05818 | 34758 ft | 475 kts | 142° |
| 2026-05-06 19:04 | 50.06937 | 15.12948 | 34758 ft | 476 kts | 142° |
| 2026-05-06 19:05 | 50.02137 | 15.20071 | 34757 ft | 476 kts | 142° |
| 2026-05-06 19:05 | 49.97349 | 15.27158 | 34750 ft | 476 kts | 143° |
| 2026-05-06 19:06 | 49.92544 | 15.34247 | 34748 ft | 477 kts | 143° |
| 2026-05-06 19:06 | 49.87729 | 15.41330 | 34753 ft | 477 kts | 143° |
| 2026-05-06 19:07 | 49.83723 | 15.47208 | 34746 ft | 477 kts | 143° |
| 2026-05-06 19:07 | 49.78088 | 15.55454 | 34721 ft | 476 kts | 144° |
| 2026-05-06 19:08 | 49.74084 | 15.61296 | 34745 ft | 475 kts | 144° |
| 2026-05-06 19:08 | 49.69272 | 15.68299 | 34748 ft | 475 kts | 144° |
| 2026-05-06 19:09 | 49.64534 | 15.75314 | 34305 ft | 473 kts | 140° |
| 2026-05-06 19:09 | 49.62367 | 15.79165 | 33655 ft | 477 kts | 137° |
| 2026-05-06 19:09 | 49.60292 | 15.83165 | 33016 ft | 475 kts | 136° |
| 2026-05-06 19:09 | 49.58271 | 15.87164 | 32487 ft | 471 kts | 135° |
| 2026-05-06 19:10 | 49.56266 | 15.91143 | 31958 ft | 466 kts | 135° |
| 2026-05-06 19:10 | 49.54289 | 15.95061 | 31482 ft | 461 kts | 135° |
| 2026-05-06 19:10 | 49.52331 | 15.98932 | 30989 ft | 457 kts | 135° |
| 2026-05-06 19:10 | 49.50381 | 16.02779 | 30508 ft | 454 kts | 134° |
| 2026-05-06 19:11 | 49.48623 | 16.06828 | 30014 ft | 458 kts | 125° |
| 2026-05-06 19:11 | 49.47267 | 16.11278 | 29543 ft | 460 kts | 118° |
| 2026-05-06 19:11 | 49.46120 | 16.15862 | 29074 ft | 456 kts | 116° |
| 2026-05-06 19:11 | 49.45069 | 16.20372 | 28739 ft | 450 kts | 116° |
| 2026-05-06 19:12 | 49.44030 | 16.24928 | 28370 ft | 444 kts | 115° |
| 2026-05-06 19:12 | 49.43010 | 16.29408 | 27872 ft | 446 kts | 115° |
| 2026-05-06 19:12 | 49.41974 | 16.33918 | 27397 ft | 448 kts | 115° |
| 2026-05-06 19:12 | 49.40930 | 16.38429 | 26983 ft | 449 kts | 115° |
| 2026-05-06 19:13 | 49.39889 | 16.42901 | 26600 ft | 449 kts | 115° |
| 2026-05-06 19:13 | 49.38726 | 16.47295 | 26232 ft | 438 kts | 126° |
| 2026-05-06 19:13 | 49.36814 | 16.50789 | 25824 ft | 420 kts | 149° |
| 2026-05-06 19:13 | 49.34299 | 16.52760 | 25535 ft | 400 kts | 171° |
| 2026-05-06 19:14 | 49.31595 | 16.53017 | 25251 ft | 384 kts | 193° |
| 2026-05-06 19:14 | 49.29006 | 16.52260 | 24777 ft | 378 kts | 189° |
| 2026-05-06 19:14 | 49.26336 | 16.52268 | 24265 ft | 388 kts | 179° |
| 2026-05-06 19:14 | 49.23650 | 16.52768 | 23985 ft | 389 kts | 176° |
| 2026-05-06 19:15 | 49.20987 | 16.53410 | 23770 ft | 386 kts | 175° |
| 2026-05-06 19:15 | 49.18350 | 16.54055 | 23612 ft | 381 kts | 176° |
| 2026-05-06 19:15 | 49.15755 | 16.54657 | 23557 ft | 373 kts | 176° |
| 2026-05-06 19:15 | 49.13205 | 16.55214 | 23462 ft | 368 kts | 176° |
| 2026-05-06 19:16 | 49.10672 | 16.55742 | 23209 ft | 367 kts | 176° |
| 2026-05-06 19:16 | 49.08135 | 16.56253 | 22807 ft | 369 kts | 177° |
| 2026-05-06 19:16 | 49.05585 | 16.56759 | 22491 ft | 369 kts | 177° |
| 2026-05-06 19:16 | 49.03048 | 16.57261 | 22278 ft | 367 kts | 177° |
| 2026-05-06 19:17 | 49.00518 | 16.57761 | 22075 ft | 365 kts | 176° |
| 2026-05-06 19:17 | 48.98010 | 16.58256 | 21856 ft | 363 kts | 177° |
| 2026-05-06 19:17 | 48.95515 | 16.58748 | 21639 ft | 361 kts | 177° |
| 2026-05-06 19:17 | 48.93027 | 16.59238 | 21389 ft | 360 kts | 177° |
| 2026-05-06 19:18 | 48.90542 | 16.59727 | 21153 ft | 359 kts | 177° |
| 2026-05-06 19:18 | 48.88070 | 16.60214 | 20922 ft | 358 kts | 177° |
| 2026-05-06 19:18 | 48.85602 | 16.60700 | 20684 ft | 357 kts | 176° |
| 2026-05-06 19:18 | 48.83144 | 16.61227 | 20476 ft | 357 kts | 174° |
| 2026-05-06 19:19 | 48.80715 | 16.61919 | 20209 ft | 349 kts | 173° |
| 2026-05-06 19:19 | 48.78354 | 16.62655 | 19473 ft | 344 kts | 173° |
| 2026-05-06 19:19 | 48.76008 | 16.63391 | 18605 ft | 345 kts | 173° |
| 2026-05-06 19:19 | 48.73632 | 16.64128 | 17675 ft | 346 kts | 173° |
| 2026-05-06 19:20 | 48.71295 | 16.64840 | 16815 ft | 343 kts | 173° |
| 2026-05-06 19:20 | 48.68967 | 16.65536 | 16065 ft | 338 kts | 173° |
| 2026-05-06 19:20 | 48.66678 | 16.66210 | 15377 ft | 332 kts | 173° |
| 2026-05-06 19:20 | 48.64413 | 16.66865 | 14687 ft | 328 kts | 173° |
| 2026-05-06 19:21 | 48.62220 | 16.67490 | 14311 ft | 315 kts | 173° |
| 2026-05-06 19:21 | 48.60111 | 16.68086 | 13992 ft | 302 kts | 173° |
| 2026-05-06 19:21 | 48.58115 | 16.68651 | 13924 ft | 283 kts | 173° |
| 2026-05-06 19:21 | 48.56201 | 16.69198 | 13919 ft | 280 kts | 173° |
| 2026-05-06 19:22 | 48.54274 | 16.69749 | 13940 ft | 284 kts | 173° |
| 2026-05-06 19:22 | 48.52321 | 16.70307 | 13875 ft | 287 kts | 173° |
| 2026-05-06 19:22 | 48.50356 | 16.70863 | 13560 ft | 287 kts | 173° |
| 2026-05-06 19:22 | 48.48400 | 16.71415 | 13206 ft | 283 kts | 173° |
| 2026-05-06 19:23 | 48.46472 | 16.71959 | 12874 ft | 280 kts | 173° |
| 2026-05-06 19:23 | 48.44564 | 16.72499 | 12523 ft | 278 kts | 173° |
| 2026-05-06 19:23 | 48.42665 | 16.73036 | 12189 ft | 277 kts | 173° |
| 2026-05-06 19:23 | 48.40770 | 16.73573 | 11857 ft | 277 kts | 173° |
| 2026-05-06 19:24 | 48.38884 | 16.74127 | 11545 ft | 277 kts | 169° |
| 2026-05-06 19:24 | 48.37048 | 16.75071 | 11149 ft | 282 kts | 162° |
| 2026-05-06 19:24 | 48.35249 | 16.76223 | 10703 ft | 286 kts | 161° |
| 2026-05-06 19:24 | 48.33420 | 16.77436 | 10225 ft | 281 kts | 160° |
| 2026-05-06 19:25 | 48.31647 | 16.78617 | 9776 ft | 277 kts | 160° |
| 2026-05-06 19:25 | 48.29907 | 16.79781 | 9288 ft | 274 kts | 160° |
| 2026-05-06 19:25 | 48.28168 | 16.80949 | 8790 ft | 273 kts | 161° |
| 2026-05-06 19:25 | 48.26443 | 16.82135 | 8311 ft | 272 kts | 161° |
| 2026-05-06 19:26 | 48.24724 | 16.83328 | 8057 ft | 273 kts | 160° |
| 2026-05-06 19:26 | 48.23000 | 16.84478 | 8001 ft | 268 kts | 167° |
| 2026-05-06 19:26 | 48.21227 | 16.84730 | 8000 ft | 258 kts | 194° |
| 2026-05-06 19:26 | 48.19597 | 16.83623 | 8004 ft | 256 kts | 221° |
| 2026-05-06 19:27 | 48.18574 | 16.81506 | 8000 ft | 259 kts | 248° |
| 2026-05-06 19:27 | 48.18356 | 16.78808 | 7999 ft | 268 kts | 274° |
| 2026-05-06 19:27 | 48.19038 | 16.76174 | 7999 ft | 280 kts | 301° |
| 2026-05-06 19:27 | 48.20505 | 16.74188 | 7997 ft | 290 kts | 326° |
| 2026-05-06 19:28 | 48.22305 | 16.72904 | 7989 ft | 283 kts | 333° |
| 2026-05-06 19:28 | 48.24104 | 16.71833 | 7981 ft | 274 kts | 334° |
| 2026-05-06 19:28 | 48.25885 | 16.70820 | 7966 ft | 274 kts | 335° |
| 2026-05-06 19:28 | 48.27689 | 16.69832 | 7785 ft | 278 kts | 335° |
| 2026-05-06 19:29 | 48.29508 | 16.68849 | 7527 ft | 276 kts | 335° |
| 2026-05-06 19:29 | 48.31308 | 16.67884 | 7279 ft | 273 kts | 335° |
| 2026-05-06 19:29 | 48.33114 | 16.66903 | 7028 ft | 271 kts | 335° |
| 2026-05-06 19:29 | 48.34840 | 16.65969 | 6770 ft | 264 kts | 335° |
| 2026-05-06 19:30 | 48.36574 | 16.65038 | 6510 ft | 258 kts | 335° |
| 2026-05-06 19:30 | 48.38263 | 16.64131 | 6290 ft | 257 kts | 335° |
| 2026-05-06 19:30 | 48.39935 | 16.63242 | 6201 ft | 255 kts | 335° |
| 2026-05-06 19:30 | 48.41621 | 16.62353 | 6094 ft | 259 kts | 335° |
| 2026-05-06 19:31 | 48.43332 | 16.61450 | 5821 ft | 260 kts | 335° |
| 2026-05-06 19:31 | 48.45006 | 16.60570 | 5499 ft | 248 kts | 336° |
| 2026-05-06 19:31 | 48.48047 | 16.58807 | 5070 ft | 218 kts | 320° |
| 2026-05-06 19:32 | 48.48964 | 16.57141 | 4996 ft | 203 kts | 285° |
| 2026-05-06 19:32 | 48.49015 | 16.55094 | 4984 ft | 197 kts | 249° |
| 2026-05-06 19:32 | 48.48218 | 16.53453 | 4983 ft | 200 kts | 215° |
| 2026-05-06 19:32 | 48.46905 | 16.52677 | 4993 ft | 208 kts | 198° |
| 2026-05-06 19:33 | 48.45478 | 16.52183 | 4984 ft | 210 kts | 195° |
| 2026-05-06 19:33 | 48.44089 | 16.51528 | 5000 ft | 214 kts | 205° |
| 2026-05-06 19:33 | 48.42744 | 16.50652 | 4973 ft | 205 kts | 206° |
| 2026-05-06 19:33 | 48.41438 | 16.49816 | 4978 ft | 204 kts | 205° |
| 2026-05-06 19:34 | 48.40130 | 16.49043 | 4957 ft | 196 kts | 198° |
| 2026-05-06 19:34 | 48.38846 | 16.48714 | 4990 ft | 185 kts | 191° |
| 2026-05-06 19:34 | 48.37574 | 16.48506 | 4983 ft | 182 kts | 190° |
| 2026-05-06 19:34 | 48.36311 | 16.48303 | 4988 ft | 185 kts | 190° |
| 2026-05-06 19:35 | 48.35019 | 16.48232 | 4981 ft | 189 kts | 176° |
| 2026-05-06 19:35 | 48.33729 | 16.48666 | 4933 ft | 194 kts | 172° |
| 2026-05-06 19:35 | 48.32412 | 16.49155 | 4670 ft | 192 kts | 171° |
| 2026-05-06 19:35 | 48.31143 | 16.49671 | 4431 ft | 187 kts | 171° |
| 2026-05-06 19:36 | 48.29901 | 16.50193 | 4196 ft | 185 kts | 171° |
| 2026-05-06 19:36 | 48.28668 | 16.50717 | 3959 ft | 183 kts | 171° |
| 2026-05-06 19:36 | 48.27461 | 16.51233 | 3716 ft | 175 kts | 171° |
| 2026-05-06 19:36 | 48.26334 | 16.51718 | 3465 ft | 162 kts | 172° |
| 2026-05-06 19:37 | 48.25264 | 16.52174 | 3262 ft | 158 kts | 172° |
| 2026-05-06 19:37 | 48.24238 | 16.52612 | 3083 ft | 146 kts | 172° |
| 2026-05-06 19:37 | 48.23295 | 16.53014 | 2891 ft | 137 kts | 173° |
| 2026-05-06 19:37 | 48.22689 | 16.53270 | 2776 ft | 136 kts | 173° |
| 2026-05-06 19:38 | 48.21474 | 16.53785 | 2531 ft | 135 kts | 173° |
| 2026-05-06 19:38 | 48.20575 | 16.54166 | 2355 ft | 133 kts | 172° |
| 2026-05-06 19:38 | 48.19695 | 16.54542 | 2166 ft | 128 kts | 172° |
| 2026-05-06 19:38 | 48.18878 | 16.54892 | 2010 ft | 116 kts | 172° |
| 2026-05-06 19:39 | 48.18099 | 16.55220 | 1860 ft | 119 kts | 172° |
| 2026-05-06 19:39 | 48.17287 | 16.55564 | 1709 ft | 122 kts | 171° |
| 2026-05-06 19:39 | 48.16467 | 16.55913 | 1535 ft | 119 kts | 169° |
| 2026-05-06 19:39 | 48.15647 | 16.56260 | 1381 ft | 129 kts | 167° |
| 2026-05-06 19:40 | 48.14779 | 16.56638 | 1189 ft | 130 kts | 165° |
| 2026-05-06 19:40 | 48.13941 | 16.57007 | 1118 ft | 130 kts | 166° |
| 2026-05-06 19:40 | 48.13073 | 16.57360 | 924 ft | 128 kts | 165° |
| 2026-05-06 19:40 | 48.12209 | 16.57720 | 742 ft | 132 kts | 164° |
| 2026-05-06 19:41 | 48.11342 | 16.58083 | 636 ft | 127 kts | 163° |
| 2026-05-06 19:41 | 48.10589 | 16.58405 | 627 ft | 72 kts | 164° |
| 2026-05-06 19:41 | 48.10250 | 16.58547 | 625 ft | 47 kts | 164° |
| 2026-05-06 19:41 | 48.09942 | 16.58616 | 620 ft | 43 kts | 186° |
| 2026-05-06 19:42 | 48.09706 | 16.58561 | 629 ft | 24 kts | 193° |
| 2026-05-06 19:42 | 48.09655 | 16.58400 | 627 ft | 20 kts | 316° |
| 2026-05-06 19:42 | 48.09784 | 16.58328 | 629 ft | 20 kts | 340° |
| 2026-05-06 19:42 | 48.09913 | 16.58271 | 626 ft | 19 kts | 343° |
| 2026-05-06 19:43 | 48.10034 | 16.58218 | 627 ft | 17 kts | 343° |
| 2026-05-06 19:43 | 48.10117 | 16.58186 | 622 ft | 5 kts | 345° |
| 2026-05-06 19:43 | 48.10145 | 16.58175 | 626 ft | 0 kts | 345° |
| 2026-05-06 19:44 | 48.10146 | 16.58174 | 626 ft | 0 kts | 345° |